createdAt,value
2023-01-13T16:02:45.558Z,1004.68
2023-01-13T16:03:45.440Z,1004.47
2023-01-13T16:04:45.392Z,1004.19
2023-01-13T16:05:45.338Z,1004.15
2023-01-13T16:06:45.304Z,1003.86
2023-01-13T16:07:45.254Z,1003.67
2023-01-13T16:08:45.217Z,1003.49
2023-01-13T16:09:45.175Z,1003.27
2023-01-13T16:10:45.134Z,1003.11
2023-01-13T16:11:45.116Z,1002.92
2023-01-13T16:12:45.039Z,1002.75
2023-01-13T16:13:44.998Z,1003.41
2023-01-13T16:14:45.171Z,1003.43
2023-01-13T16:15:44.911Z,1003.61
2023-01-13T16:16:53.695Z,1003.89
2023-01-13T16:17:44.826Z,1003.48
2023-01-13T16:18:44.786Z,1003.31
2023-01-13T16:19:44.748Z,1003.19
2023-01-13T16:20:44.722Z,1003.09
2023-01-13T16:21:44.672Z,1003.07
2023-01-13T16:22:44.621Z,1003.10
2023-01-13T16:23:44.578Z,1003.69
2023-01-13T16:24:44.541Z,1003.32
2023-01-13T16:25:44.500Z,1003.27
2023-01-13T16:26:44.471Z,1003.61
2023-01-13T16:27:44.419Z,1003.82
2023-01-13T16:28:44.376Z,1003.62
2023-01-13T16:29:44.335Z,1003.50
2023-01-13T16:30:44.307Z,1003.49
2023-01-13T16:31:44.283Z,1003.85
2023-01-13T16:32:44.232Z,1003.71
2023-01-13T16:33:44.176Z,1004.04
2023-01-13T16:34:44.138Z,1003.94
2023-01-13T16:36:09.692Z,1004.12
2023-01-13T16:36:44.055Z,1004.00
2023-01-13T16:37:44.011Z,1003.98
2023-01-13T16:38:44.010Z,1003.86
2023-01-13T16:39:43.934Z,1003.80
2023-01-13T16:40:43.895Z,1004.13
2023-01-13T16:41:43.851Z,1003.89
2023-01-13T16:42:43.813Z,1004.03
2023-01-13T16:43:43.770Z,1003.67
2023-01-13T16:44:43.739Z,1003.62
2023-01-13T16:45:43.697Z,1003.37
2023-01-13T16:46:43.650Z,1004.13
2023-01-13T16:47:43.606Z,1003.94
2023-01-13T16:48:43.568Z,1004.18
2023-01-13T16:49:43.528Z,1004.19
2023-01-13T16:50:43.495Z,1004.02
2023-01-13T16:51:43.441Z,1004.05
2023-01-13T16:52:43.409Z,1004.48
2023-01-13T16:53:43.360Z,1004.63
2023-01-13T16:54:43.326Z,1004.44
2023-01-13T16:55:43.284Z,1004.21
2023-01-13T16:56:43.263Z,1004.29
2023-01-13T16:57:43.196Z,1003.89
2023-01-13T16:58:43.153Z,1003.81
2023-01-13T16:59:43.120Z,1003.69
2023-01-13T17:00:43.093Z,1003.73
2023-01-13T17:01:43.152Z,1003.62
2023-01-13T17:02:43.003Z,1004.20
2023-01-13T17:03:42.997Z,1004.41
2023-01-13T17:04:42.913Z,1004.18
2023-01-13T17:05:42.865Z,1004.38
2023-01-13T17:06:42.912Z,1004.59
2023-01-13T17:07:42.779Z,1004.59
2023-01-13T17:08:42.763Z,1004.45
2023-01-13T17:09:42.694Z,1004.75
2023-01-13T17:10:42.656Z,1004.50
2023-01-13T17:11:42.612Z,1004.76
2023-01-13T17:12:42.574Z,1004.71
2023-01-13T17:13:42.534Z,1004.75
2023-01-13T17:14:42.500Z,1004.63
2023-01-13T17:15:42.457Z,1004.72
2023-01-13T17:16:42.548Z,1004.58
2023-01-13T17:17:42.356Z,1004.85
2023-01-13T17:18:42.320Z,1004.81
2023-01-13T17:19:42.278Z,1005.03
2023-01-13T17:20:42.238Z,1004.72
2023-01-13T17:21:42.212Z,1004.54
2023-01-13T17:22:42.426Z,1004.85
2023-01-13T17:23:42.111Z,1004.74
2023-01-13T17:24:42.071Z,1004.64
2023-01-13T17:25:42.053Z,1004.78
2023-01-13T17:26:41.990Z,1004.86
2023-01-13T17:27:41.950Z,1005.03
2023-01-13T17:28:41.903Z,1005.12
2023-01-13T17:29:41.862Z,1004.67
2023-01-13T17:30:42.129Z,1005.03
2023-01-13T17:31:41.850Z,1005.03
2023-01-13T17:32:41.734Z,1005.22
2023-01-13T17:33:41.700Z,1004.98
2023-01-13T17:34:41.660Z,1004.86
2023-01-13T17:35:41.610Z,1004.82
2023-01-13T17:36:41.568Z,1005.13
2023-01-13T17:37:41.518Z,1005.27
2023-01-13T17:38:41.494Z,1004.98
2023-01-13T17:39:41.447Z,1005.00
2023-01-13T17:40:41.400Z,1005.26
2023-01-13T17:41:41.349Z,1005.03
2023-01-13T17:42:41.319Z,1005.38
2023-01-13T17:43:41.269Z,1005.30
2023-01-13T17:44:41.230Z,1005.36
2023-01-13T17:45:41.228Z,1005.29
2023-01-13T17:46:41.147Z,1005.02
2023-01-13T17:47:41.096Z,1004.90
2023-01-13T17:48:41.060Z,1004.99
2023-01-13T17:49:41.013Z,1004.73
2023-01-13T17:50:40.986Z,1004.66
2023-01-13T17:51:40.941Z,1004.76
2023-01-13T17:52:40.890Z,1004.73
2023-01-13T17:53:40.849Z,1004.67
2023-01-13T17:54:40.801Z,1004.78
2023-01-13T17:55:40.762Z,1004.88
2023-01-13T17:56:40.737Z,1005.27
2023-01-13T17:57:40.683Z,1005.02
2023-01-13T17:58:40.640Z,1004.88
2023-01-13T17:59:40.590Z,1004.95
2023-01-13T18:00:40.550Z,1005.13
2023-01-13T18:01:40.580Z,1005.17
2023-01-13T18:02:40.545Z,1004.98
2023-01-13T18:03:40.460Z,1004.87
2023-01-13T18:04:40.383Z,1004.89
2023-01-13T18:05:40.340Z,1005.07
2023-01-13T18:06:40.309Z,1005.33
2023-01-13T18:07:40.260Z,1005.12
2023-01-13T18:08:40.211Z,1005.23
2023-01-13T18:09:40.193Z,1005.34
2023-01-13T18:10:40.140Z,1005.12
2023-01-13T18:11:40.080Z,1005.47
2023-01-13T18:12:40.053Z,1005.35
2023-01-13T18:13:40.014Z,1005.66
2023-01-13T18:14:39.974Z,1005.73
2023-01-13T18:15:39.923Z,1005.71
2023-01-13T18:16:39.895Z,1005.38
2023-01-13T18:17:39.827Z,1005.66
2023-01-13T18:18:39.791Z,1005.45
2023-01-13T18:19:39.747Z,1005.24
2023-01-13T18:20:39.703Z,1005.20
2023-01-13T18:21:39.676Z,1005.16
2023-01-13T18:22:39.622Z,1005.62
2023-01-13T18:23:39.578Z,1005.73
2023-01-13T18:24:39.537Z,1005.51
2023-01-13T18:25:39.492Z,1005.57
2023-01-13T18:26:39.495Z,1005.71
2023-01-13T18:27:39.421Z,1005.65
2023-01-13T18:28:39.365Z,1005.25
2023-01-13T18:29:39.335Z,1005.43
2023-01-13T18:30:39.285Z,1005.30
2023-01-13T18:31:39.241Z,1005.44
2023-01-13T18:32:39.222Z,1005.13
2023-01-13T18:33:39.169Z,1005.13
2023-01-13T18:34:39.127Z,1005.00
2023-01-13T18:35:39.071Z,1005.37
2023-01-13T18:36:39.041Z,1005.45
2023-01-13T18:37:39.002Z,1005.66
2023-01-13T18:38:38.946Z,1005.70
2023-01-13T18:39:38.930Z,1005.73
2023-01-13T18:40:38.864Z,1005.34
2023-01-13T18:41:38.826Z,1005.12
2023-01-13T18:42:38.777Z,1004.95
2023-01-13T18:43:38.737Z,1005.58
2023-01-13T18:44:38.697Z,1005.35
2023-01-13T18:45:38.697Z,1005.54
2023-01-13T18:46:38.606Z,1005.77
2023-01-13T18:47:38.567Z,1005.79
2023-01-13T18:48:38.535Z,1005.52
2023-01-13T18:49:38.500Z,1005.53
2023-01-13T18:50:38.443Z,1005.79
2023-01-13T18:51:38.421Z,1005.61
2023-01-13T18:52:38.361Z,1005.43
2023-01-13T18:53:38.317Z,1005.57
2023-01-13T18:54:38.272Z,1005.84
2023-01-13T18:55:38.250Z,1005.91
2023-01-13T18:56:38.198Z,1005.73
2023-01-13T18:57:38.161Z,1005.18
2023-01-13T18:58:38.111Z,1005.28
2023-01-13T18:59:38.071Z,1005.28
2023-01-13T19:00:38.022Z,1005.69
2023-01-13T19:01:38.176Z,1005.54
2023-01-13T19:02:38.024Z,1005.55
2023-01-13T19:03:37.912Z,1005.65
2023-01-13T19:04:37.852Z,1005.74
2023-01-13T19:05:37.818Z,1005.48
2023-01-13T19:06:37.774Z,1005.41
2023-01-13T19:07:37.733Z,1005.30
2023-01-13T19:08:37.690Z,1005.41
2023-01-13T19:09:37.678Z,1005.32
2023-01-13T19:10:37.600Z,1005.63
2023-01-13T19:11:37.580Z,1005.65
2023-01-13T19:12:37.525Z,1005.35
2023-01-13T19:13:37.490Z,1005.65
2023-01-13T19:14:37.603Z,1005.69
2023-01-13T19:15:37.474Z,1005.87
2023-01-13T19:16:37.365Z,1005.94
2023-01-13T19:17:37.321Z,1005.90
2023-01-13T19:18:37.267Z,1005.35
2023-01-13T19:19:37.238Z,1005.13
2023-01-13T19:20:37.184Z,1004.76
2023-01-13T19:21:37.159Z,1004.61
2023-01-13T19:22:37.112Z,1004.53
2023-01-13T19:23:37.064Z,1004.49
2023-01-13T19:24:37.022Z,1004.53
2023-01-13T19:25:36.977Z,1004.35
2023-01-13T19:26:36.934Z,1004.49
2023-01-13T19:27:36.907Z,1004.29
2023-01-13T19:28:36.850Z,1005.10
2023-01-13T19:29:36.813Z,1005.63
2023-01-13T19:30:36.769Z,1005.86
2023-01-13T19:31:36.735Z,1005.98
2023-01-13T19:32:36.687Z,1006.11
2023-01-13T19:33:36.676Z,1006.07
2023-01-13T19:34:36.605Z,1005.63
2023-01-13T19:35:36.557Z,1005.20
2023-01-13T19:36:36.516Z,1005.02
2023-01-13T19:37:36.472Z,1005.12
2023-01-13T19:38:36.434Z,1005.48
2023-01-13T19:39:36.411Z,1005.26
2023-01-13T19:40:36.351Z,1005.14
2023-01-13T19:41:36.311Z,1004.96
2023-01-13T19:42:36.266Z,1005.32
2023-01-13T19:43:36.235Z,1005.41
2023-01-13T19:44:36.183Z,1006.05
2023-01-13T19:45:36.157Z,1006.06
2023-01-13T19:46:36.129Z,1006.17
2023-01-13T19:47:36.060Z,1005.67
2023-01-13T19:48:36.011Z,1005.55
2023-01-13T19:49:35.977Z,1005.28
2023-01-13T19:50:35.931Z,1005.13
2023-01-13T19:51:35.900Z,1005.31
2023-01-13T19:52:35.843Z,1004.91
2023-01-13T19:53:35.808Z,1005.30
2023-01-13T19:54:35.766Z,1005.82
2023-01-13T19:55:35.735Z,1005.82
2023-01-13T19:56:35.682Z,1006.21
2023-01-13T19:57:35.652Z,1006.03
2023-01-13T19:58:35.595Z,1006.27
2023-01-13T19:59:35.580Z,1006.40
2023-01-13T20:00:35.518Z,1005.76
2023-01-13T20:01:35.583Z,1005.44
2023-01-13T20:02:35.513Z,1005.08
2023-01-13T20:03:35.405Z,1005.04
2023-01-13T20:04:35.350Z,1004.79
2023-01-13T20:05:35.306Z,1004.54
2023-01-13T20:06:35.262Z,1004.44
2023-01-13T20:07:35.365Z,1005.39
2023-01-13T20:08:35.175Z,1005.97
2023-01-13T20:09:35.147Z,1005.56
2023-01-13T20:10:35.086Z,1005.74
2023-01-13T20:11:35.051Z,1005.86
2023-01-13T20:12:35.012Z,1005.63
2023-01-13T20:13:35.825Z,1005.78
2023-01-13T20:14:34.921Z,1005.50
2023-01-13T20:15:35.825Z,1005.53
2023-01-13T20:16:34.837Z,1005.94
2023-01-13T20:17:34.804Z,1005.74
2023-01-13T20:18:34.754Z,1005.74
2023-01-13T20:19:34.722Z,1005.57
2023-01-13T20:20:34.668Z,1006.12
2023-01-13T20:21:34.648Z,1005.85
2023-01-13T20:22:34.587Z,1005.93
2023-01-13T20:23:34.574Z,1005.90
2023-01-13T20:24:34.500Z,1006.23
2023-01-13T20:25:34.544Z,1005.71
2023-01-13T20:26:34.429Z,1005.44
2023-01-13T20:27:34.396Z,1005.51
2023-01-13T20:28:34.350Z,1006.10
2023-01-13T20:29:34.300Z,1006.45
2023-01-13T20:30:34.252Z,1006.37
2023-01-13T20:31:34.261Z,1006.23
2023-01-13T20:32:34.166Z,1005.90
2023-01-13T20:33:34.126Z,1006.37
2023-01-13T20:34:34.091Z,1006.61
2023-01-13T20:35:34.043Z,1006.70
2023-01-13T20:36:33.997Z,1006.82
2023-01-13T20:37:33.956Z,1006.48
2023-01-13T20:38:33.912Z,1006.14
2023-01-13T20:39:33.904Z,1006.02
2023-01-13T20:40:33.827Z,1006.26
2023-01-13T20:41:33.787Z,1006.17
2023-01-13T20:42:33.744Z,1005.83
2023-01-13T20:43:33.703Z,1006.08
2023-01-13T20:44:33.662Z,1006.06
2023-01-13T20:45:33.637Z,1006.07
2023-01-13T20:46:33.598Z,1006.38
2023-01-13T20:47:33.542Z,1006.54
2023-01-13T20:48:33.489Z,1006.62
2023-01-13T20:49:33.448Z,1006.54
2023-01-13T20:50:33.404Z,1006.80
2023-01-13T20:51:33.378Z,1006.75
2023-01-13T20:52:33.338Z,1006.59
2023-01-13T20:53:33.296Z,1006.50
2023-01-13T20:54:33.248Z,1006.26
2023-01-13T20:55:33.226Z,1005.94
2023-01-13T20:56:33.151Z,1005.76
2023-01-13T20:57:33.117Z,1005.62
2023-01-13T20:58:33.070Z,1005.96
2023-01-13T20:59:33.027Z,1006.42
2023-01-13T21:00:33.033Z,1006.95
2023-01-13T21:01:33.022Z,1007.14
2023-01-13T21:02:32.898Z,1007.00
2023-01-13T21:03:32.905Z,1007.31
2023-01-13T21:04:32.813Z,1007.06
2023-01-13T21:05:32.775Z,1007.36
2023-01-13T21:06:32.737Z,1007.40
2023-01-13T21:07:32.711Z,1007.33
2023-01-13T21:08:32.659Z,1007.18
2023-01-13T21:09:32.606Z,1007.25
2023-01-13T21:10:32.567Z,1007.29
2023-01-13T21:11:32.519Z,1006.97
2023-01-13T21:12:32.482Z,1007.20
2023-01-13T21:13:32.437Z,1007.05
2023-01-13T21:14:32.400Z,1007.21
2023-01-13T21:15:32.360Z,1007.24
2023-01-13T21:16:32.357Z,1006.88
2023-01-13T21:17:32.280Z,1006.54
2023-01-13T21:18:32.221Z,1006.91
2023-01-13T21:19:32.182Z,1006.98
2023-01-13T21:20:32.158Z,1006.52
2023-01-13T21:21:32.099Z,1006.19
2023-01-13T21:22:32.060Z,1005.76
2023-01-13T21:23:32.012Z,1005.67
2023-01-13T21:24:31.964Z,1006.03
2023-01-13T21:25:33.938Z,1005.83
2023-01-13T21:26:31.889Z,1005.63
2023-01-13T21:27:31.850Z,1005.45
2023-01-13T21:28:31.804Z,1005.30
2023-01-13T21:29:31.762Z,1005.14
2023-01-13T21:30:31.721Z,1005.55
2023-01-13T21:31:31.701Z,1006.08
2023-01-13T21:32:31.631Z,1005.96
2023-01-13T21:33:31.595Z,1006.72
2023-01-13T21:34:31.546Z,1006.77
2023-01-13T21:35:31.530Z,1006.97
2023-01-13T21:36:31.462Z,1006.46
2023-01-13T21:37:31.438Z,1006.31
2023-01-13T21:38:31.392Z,1006.08
2023-01-13T21:39:31.337Z,1006.17
2023-01-13T21:40:31.304Z,1006.33
2023-01-13T21:41:31.255Z,1006.12
2023-01-13T21:42:31.811Z,1005.86
2023-01-13T21:43:31.244Z,1006.04
2023-01-13T21:44:31.143Z,1006.33
2023-01-13T21:45:31.121Z,1006.52
2023-01-13T21:46:31.041Z,1006.96
2023-01-13T21:47:31.016Z,1006.95
2023-01-13T21:48:30.966Z,1007.20
2023-01-13T21:49:30.912Z,1007.27
2023-01-13T21:50:30.876Z,1007.18
2023-01-13T21:51:30.831Z,1007.33
2023-01-13T21:52:30.794Z,1007.24
2023-01-13T21:53:30.760Z,1007.46
2023-01-13T21:54:30.698Z,1007.47
2023-01-13T21:55:30.662Z,1007.57
2023-01-13T21:56:30.626Z,1007.25
2023-01-13T21:57:30.585Z,1007.36
2023-01-13T21:58:30.547Z,1007.10
2023-01-13T21:59:30.508Z,1007.47
2023-01-13T22:00:30.468Z,1007.27
2023-01-13T22:01:30.472Z,1007.47
2023-01-13T22:02:30.444Z,1007.54
2023-01-13T22:03:30.333Z,1007.61
2023-01-13T22:04:30.279Z,1007.67
2023-01-13T22:05:30.238Z,1007.68
2023-01-13T22:06:30.255Z,1007.24
2023-01-13T22:07:30.153Z,1007.28
2023-01-13T22:08:30.108Z,1007.52
2023-01-13T22:09:30.071Z,1007.11
2023-01-13T22:10:30.052Z,1006.96
2023-01-13T22:11:29.988Z,1007.04
2023-01-13T22:12:29.949Z,1007.28
2023-01-13T22:13:29.914Z,1007.60
2023-01-13T22:14:29.858Z,1007.68
2023-01-13T22:15:29.814Z,1007.38
2023-01-13T22:16:29.788Z,1007.06
2023-01-13T22:17:39.410Z,1006.68
2023-01-13T22:18:29.694Z,1006.68
2023-01-13T22:19:29.663Z,1006.79
2023-01-13T22:20:29.605Z,1006.60
2023-01-13T22:21:29.566Z,1006.87
2023-01-13T22:22:29.517Z,1007.43
2023-01-13T22:23:29.474Z,1007.33
2023-01-13T22:24:29.451Z,1007.78
2023-01-13T22:25:29.416Z,1007.49
2023-01-13T22:26:29.347Z,1007.42
2023-01-13T22:27:29.309Z,1007.25
2023-01-13T22:28:29.261Z,1007.38
2023-01-13T22:29:29.223Z,1007.58
2023-01-13T22:30:29.192Z,1007.58
2023-01-13T22:31:29.157Z,1007.78
2023-01-13T22:32:29.096Z,1007.89
2023-01-13T22:33:29.066Z,1007.65
2023-01-13T22:34:29.009Z,1007.68
2023-01-13T22:35:28.973Z,1007.32
2023-01-13T22:36:28.942Z,1007.23
2023-01-13T22:37:28.891Z,1006.91
2023-01-13T22:38:28.841Z,1007.39
2023-01-13T22:39:28.796Z,1006.92
2023-01-13T22:40:28.756Z,1006.64
2023-01-13T22:41:28.723Z,1006.86
2023-01-13T22:42:28.674Z,1006.52
2023-01-13T22:43:28.632Z,1006.77
2023-01-13T22:44:28.586Z,1006.79
2023-01-13T22:45:28.550Z,1006.81
2023-01-13T22:46:28.503Z,1007.08
2023-01-13T22:47:28.466Z,1007.48
2023-01-13T22:48:28.419Z,1007.73
2023-01-13T22:49:28.370Z,1007.85
2023-01-13T22:50:28.334Z,1008.02
2023-01-13T22:51:28.302Z,1008.07
2023-01-13T22:52:28.246Z,1007.84
2023-01-13T22:53:28.202Z,1008.16
2023-01-13T22:54:28.159Z,1008.04
2023-01-13T22:55:28.117Z,1007.75
2023-01-13T22:56:28.085Z,1007.73
2023-01-13T22:57:35.524Z,1007.82
2023-01-13T22:58:27.994Z,1007.65
2023-01-13T22:59:27.993Z,1007.71
2023-01-13T23:00:27.909Z,1007.55
2023-01-13T23:01:27.919Z,1007.55
2023-01-13T23:02:27.833Z,1008.05
2023-01-13T23:03:27.803Z,1008.16
2023-01-13T23:04:27.772Z,1008.20
2023-01-13T23:05:27.701Z,1007.94
2023-01-13T23:06:27.653Z,1007.88
2023-01-13T23:07:27.615Z,1007.81
2023-01-13T23:08:27.936Z,1008.01
2023-01-13T23:09:27.527Z,1007.88
2023-01-13T23:10:27.522Z,1007.58
2023-01-13T23:11:27.451Z,1007.24
2023-01-13T23:12:27.427Z,1006.96
2023-01-13T23:13:27.360Z,1006.70
2023-01-13T23:14:27.346Z,1006.57
2023-01-13T23:15:27.295Z,1006.45
2023-01-13T23:16:27.263Z,1006.47
2023-01-13T23:17:27.195Z,1007.13
2023-01-13T23:18:27.148Z,1007.73
2023-01-13T23:19:27.106Z,1007.39
2023-01-13T23:20:27.063Z,1007.11
2023-01-13T23:21:27.033Z,1007.09
2023-01-13T23:22:26.997Z,1007.40
2023-01-13T23:23:26.933Z,1007.56
2023-01-13T23:24:26.892Z,1007.19
2023-01-13T23:25:26.849Z,1007.51
2023-01-13T23:26:26.811Z,1007.34
2023-01-13T23:27:26.777Z,1007.43
2023-01-13T23:28:26.724Z,1007.71
2023-01-13T23:29:26.681Z,1007.82
2023-01-13T23:30:26.641Z,1008.16
2023-01-13T23:31:26.593Z,1008.21
2023-01-13T23:32:26.559Z,1008.16
2023-01-13T23:33:26.527Z,1008.13
2023-01-13T23:34:26.485Z,1008.35
2023-01-13T23:35:26.451Z,1008.44
2023-01-13T23:36:26.388Z,1008.28
2023-01-13T23:37:26.341Z,1008.20
2023-01-13T23:38:26.301Z,1008.23
2023-01-13T23:39:26.255Z,1007.95
2023-01-13T23:40:26.221Z,1007.95
2023-01-13T23:41:26.202Z,1007.28
2023-01-13T23:42:26.148Z,1007.25
2023-01-13T23:43:26.087Z,1008.08
2023-01-13T23:44:26.052Z,1008.48
2023-01-13T23:45:26.896Z,1008.38
2023-01-13T23:46:26.061Z,1008.50
2023-01-13T23:47:25.928Z,1008.25
2023-01-13T23:48:25.883Z,1008.65
2023-01-13T23:49:25.848Z,1008.50
2023-01-13T23:50:25.794Z,1007.99
2023-01-13T23:51:25.748Z,1007.75
2023-01-13T23:52:25.734Z,1007.56
2023-01-13T23:53:25.668Z,1007.29
2023-01-13T23:54:25.628Z,1007.03
2023-01-13T23:55:25.597Z,1007.43
2023-01-13T23:56:25.554Z,1007.90
2023-01-13T23:57:25.553Z,1008.10
2023-01-13T23:58:25.474Z,1008.05
2023-01-13T23:59:25.407Z,1008.07
